createdAt,value
2023-05-24T00:00:11.211Z,7.99
2023-05-24T00:02:43.751Z,8.03
2023-05-24T00:05:16.775Z,7.94
2023-05-24T00:07:49.424Z,7.62
2023-05-24T00:10:22.206Z,7.55
2023-05-24T00:12:54.801Z,7.56
2023-05-24T00:15:27.233Z,7.59
2023-05-24T00:17:59.712Z,7.57
2023-05-24T00:20:32.575Z,7.55
2023-05-24T00:23:05.070Z,7.57
2023-05-24T00:25:37.641Z,7.50
2023-05-24T00:28:10.367Z,7.49
2023-05-24T00:30:43.264Z,7.42
2023-05-24T00:33:15.987Z,7.30
2023-05-24T00:35:48.678Z,7.20
2023-05-24T00:38:21.231Z,7.08
2023-05-24T00:40:56.445Z,6.99
2023-05-24T00:43:28.934Z,6.96
2023-05-24T00:46:26.437Z,6.82
2023-05-24T00:49:00.398Z,6.87
2023-05-24T00:51:33.959Z,6.87
2023-05-24T00:54:06.959Z,6.81
2023-05-24T00:56:39.638Z,6.75
2023-05-24T00:59:12.320Z,6.60
2023-05-24T01:01:46.990Z,6.73
2023-05-24T01:04:20.472Z,6.72
2023-05-24T01:07:09.275Z,6.64
2023-05-24T01:10:03.065Z,6.53
2023-05-24T01:12:58.668Z,6.45
2023-05-24T01:15:50.088Z,6.34
2023-05-24T01:18:33.748Z,6.28
2023-05-24T01:21:26.531Z,6.24
2023-05-24T01:24:25.889Z,6.16
2023-05-24T01:27:08.004Z,6.10
2023-05-24T01:29:40.684Z,6.05
2023-05-24T01:32:13.478Z,6.03
2023-05-24T01:34:45.959Z,6.07
2023-05-24T01:37:18.596Z,6.06
2023-05-24T01:39:51.416Z,5.99
2023-05-24T01:42:54.706Z,6.03
2023-05-24T01:45:44.454Z,5.98
2023-05-24T01:48:27.680Z,6.05
2023-05-24T01:51:01.696Z,5.99
2023-05-24T01:53:39.459Z,5.96
2023-05-24T01:56:13.163Z,5.91
2023-05-24T01:58:47.544Z,5.85
2023-05-24T02:01:20.113Z,5.79
2023-05-24T02:03:52.786Z,5.74
2023-05-24T02:06:25.475Z,5.67
2023-05-24T02:08:57.904Z,5.63
2023-05-24T02:11:30.452Z,5.61
2023-05-24T02:14:03.008Z,5.58
2023-05-24T02:16:42.576Z,5.58
2023-05-24T02:19:15.542Z,5.57
2023-05-24T02:21:48.126Z,5.55
2023-05-24T02:24:20.673Z,5.43
2023-05-24T02:26:54.893Z,5.55
2023-05-24T02:29:27.486Z,5.63
2023-05-24T02:31:59.927Z,5.65
2023-05-24T02:34:32.342Z,5.63
2023-05-24T02:37:05.380Z,5.55
2023-05-24T02:39:37.835Z,5.52
2023-05-24T02:42:11.475Z,5.47
2023-05-24T02:44:47.862Z,5.43
2023-05-24T02:47:20.442Z,5.41
2023-05-24T02:49:53.872Z,5.37
2023-05-24T02:52:26.768Z,5.35
2023-05-24T02:54:59.220Z,5.32
2023-05-24T02:57:34.119Z,5.28
2023-05-24T03:00:09.579Z,5.26
2023-05-24T03:02:42.330Z,5.26
2023-05-24T03:05:15.008Z,5.22
2023-05-24T03:07:47.539Z,5.20
2023-05-24T03:10:20.021Z,5.17
2023-05-24T03:12:52.488Z,5.20
2023-05-24T03:15:25.032Z,5.20
2023-05-24T03:17:57.516Z,5.16
2023-05-24T03:20:30.046Z,5.25
2023-05-24T03:23:02.629Z,5.22
2023-05-24T03:25:35.287Z,5.22
2023-05-24T03:28:07.773Z,5.22
2023-05-24T03:30:40.443Z,5.17
2023-05-24T03:33:13.165Z,5.23
2023-05-24T03:35:45.743Z,5.23
2023-05-24T03:38:18.269Z,5.33
2023-05-24T03:40:50.737Z,5.31
2023-05-24T03:43:23.377Z,5.34
2023-05-24T03:45:55.873Z,5.34
2023-05-24T03:48:28.421Z,5.23
2023-05-24T03:51:00.849Z,5.25
2023-05-24T03:53:33.339Z,5.36
2023-05-24T03:56:06.046Z,5.34
2023-05-24T03:58:38.647Z,5.35
2023-05-24T04:01:21.952Z,5.30
2023-05-24T04:04:03.178Z,5.33
2023-05-24T04:06:36.856Z,5.44
2023-05-24T04:09:10.044Z,5.37
2023-05-24T04:11:42.597Z,5.37
2023-05-24T04:14:15.156Z,5.39
2023-05-24T04:16:48.288Z,5.51
2023-05-24T04:19:21.225Z,5.47
2023-05-24T04:21:53.715Z,5.52
2023-05-24T04:24:26.236Z,5.43
2023-05-24T04:27:00.241Z,5.56
2023-05-24T04:29:33.895Z,5.65
2023-05-24T04:32:06.899Z,5.61
2023-05-24T04:34:42.827Z,5.81
2023-05-24T04:37:17.105Z,5.97
2023-05-24T04:39:49.595Z,6.11
2023-05-24T04:42:22.147Z,6.14
2023-05-24T04:44:54.545Z,6.13
2023-05-24T04:47:27.461Z,6.27
2023-05-24T04:49:59.938Z,6.12
2023-05-24T04:52:33.363Z,6.05
2023-05-24T04:55:06.309Z,6.33
2023-05-24T04:57:38.854Z,6.25
2023-05-24T05:00:12.007Z,6.55
2023-05-24T05:02:44.678Z,6.51
2023-05-24T05:05:17.371Z,6.58
2023-05-24T05:07:49.926Z,6.80
2023-05-24T05:10:23.904Z,6.82
2023-05-24T05:12:56.519Z,6.80
2023-05-24T05:15:29.395Z,7.05
2023-05-24T05:18:01.938Z,7.13
2023-05-24T05:20:34.652Z,7.26
2023-05-24T05:23:07.220Z,7.15
2023-05-24T05:25:39.691Z,7.26
2023-05-24T05:28:12.183Z,7.48
2023-05-24T05:30:44.727Z,7.46
2023-05-24T05:33:17.461Z,7.75
2023-05-24T05:35:50.907Z,7.87
2023-05-24T05:38:24.789Z,8.01
2023-05-24T05:40:57.301Z,8.07
2023-05-24T05:43:31.051Z,8.11
2023-05-24T05:46:03.667Z,8.23
2023-05-24T05:48:36.279Z,8.16
2023-05-24T05:51:09.214Z,8.48
2023-05-24T05:53:41.710Z,8.59
2023-05-24T05:56:14.155Z,8.55
2023-05-24T05:58:46.828Z,8.66
2023-05-24T06:01:19.245Z,8.69
2023-05-24T06:03:52.144Z,8.68
2023-05-24T06:06:24.593Z,9.19
2023-05-24T06:08:57.107Z,9.29
2023-05-24T06:11:29.608Z,9.33
2023-05-24T06:14:02.706Z,9.46
2023-05-24T06:16:36.558Z,9.37
2023-05-24T06:19:09.258Z,9.66
2023-05-24T06:21:47.253Z,9.83
2023-05-24T06:24:22.723Z,9.73
2023-05-24T06:26:55.846Z,9.62
2023-05-24T06:29:28.358Z,9.47
2023-05-24T06:32:01.007Z,10.17
2023-05-24T06:34:33.676Z,10.35
2023-05-24T06:37:06.145Z,10.47
2023-05-24T06:39:38.628Z,10.68
2023-05-24T06:42:11.156Z,10.50
2023-05-24T06:44:43.608Z,10.70
2023-05-24T06:47:16.186Z,10.77
2023-05-24T06:49:50.048Z,11.03
2023-05-24T06:52:22.884Z,11.11
2023-05-24T06:54:55.554Z,11.49
2023-05-24T06:57:28.065Z,11.19
2023-05-24T07:00:00.562Z,11.41
2023-05-24T07:02:33.101Z,10.70
2023-05-24T07:05:06.462Z,11.07
2023-05-24T07:07:40.341Z,11.15
2023-05-24T07:10:13.380Z,11.30
2023-05-24T07:12:46.064Z,11.30
2023-05-24T07:15:18.674Z,11.11
2023-05-24T07:17:51.118Z,11.73
2023-05-24T07:20:23.684Z,11.52
2023-05-24T07:22:56.987Z,12.08
2023-05-24T07:25:29.420Z,12.11
2023-05-24T07:28:01.853Z,12.22
2023-05-24T07:30:34.961Z,12.56
2023-05-24T07:33:07.583Z,12.37
2023-05-24T07:35:40.228Z,12.65
2023-05-24T07:38:12.739Z,12.58
2023-05-24T07:40:45.413Z,12.47
2023-05-24T07:43:18.070Z,12.73
2023-05-24T07:45:50.566Z,12.52
2023-05-24T07:48:25.995Z,12.72
2023-05-24T07:50:58.499Z,11.73
2023-05-24T07:53:31.434Z,12.25
2023-05-24T07:56:04.131Z,12.23
2023-05-24T07:58:38.448Z,12.38
2023-05-24T08:01:10.894Z,12.42
2023-05-24T08:03:43.621Z,12.63
2023-05-24T08:06:16.658Z,12.80
2023-05-24T08:08:49.155Z,12.24
2023-05-24T08:11:21.784Z,12.72
2023-05-24T08:13:54.242Z,13.00
2023-05-24T08:16:26.840Z,13.14
2023-05-24T08:18:59.378Z,13.29
2023-05-24T08:21:32.043Z,13.81
2023-05-24T08:24:06.157Z,13.43
2023-05-24T08:26:41.220Z,14.22
2023-05-24T08:29:13.697Z,13.80
2023-05-24T08:31:46.350Z,14.02
2023-05-24T08:34:19.235Z,13.95
2023-05-24T08:36:51.691Z,14.44
2023-05-24T08:39:24.206Z,13.95
2023-05-24T08:42:08.628Z,14.24
2023-05-24T08:44:52.676Z,14.31
2023-05-24T08:47:26.360Z,14.60
2023-05-24T08:49:59.590Z,14.39
2023-05-24T08:52:32.759Z,14.34
2023-05-24T08:55:05.887Z,14.52
2023-05-24T08:57:41.024Z,14.80
2023-05-24T09:00:14.171Z,15.01
2023-05-24T09:02:47.567Z,15.18
2023-05-24T09:05:22.064Z,15.47
2023-05-24T09:07:56.880Z,15.43
2023-05-24T09:10:41.208Z,15.66
2023-05-24T09:13:24.062Z,15.24
2023-05-24T09:15:56.847Z,14.70
2023-05-24T09:18:29.507Z,13.99
2023-05-24T09:21:02.066Z,14.74
2023-05-24T09:23:35.221Z,14.88
2023-05-24T09:26:09.742Z,14.91
2023-05-24T09:28:42.293Z,15.16
2023-05-24T09:31:14.835Z,15.47
2023-05-24T09:33:48.725Z,15.73
2023-05-24T09:36:21.927Z,15.47
2023-05-24T09:39:09.519Z,14.91
2023-05-24T09:41:44.042Z,15.17
2023-05-24T09:44:16.798Z,15.13
2023-05-24T09:46:49.428Z,14.51
2023-05-24T09:49:21.965Z,15.03
2023-05-24T09:51:54.601Z,15.47
2023-05-24T09:54:27.637Z,15.86
2023-05-24T09:57:03.488Z,16.27
2023-05-24T09:59:40.099Z,16.08
2023-05-24T10:02:12.839Z,15.37
2023-05-24T10:04:45.387Z,15.11
2023-05-24T10:07:18.445Z,15.74
2023-05-24T10:09:51.681Z,16.11
2023-05-24T10:12:25.682Z,16.51
2023-05-24T10:14:59.870Z,16.92
2023-05-24T10:17:32.495Z,17.16
2023-05-24T10:20:07.301Z,17.07
2023-05-24T10:22:47.608Z,17.20
2023-05-24T10:25:27.440Z,16.98
2023-05-24T10:28:07.322Z,16.05
2023-05-24T10:31:02.054Z,16.59
2023-05-24T10:33:36.137Z,16.79
2023-05-24T10:36:11.828Z,16.07
2023-05-24T10:38:47.093Z,16.57
2023-05-24T10:41:19.896Z,16.00
2023-05-24T10:44:07.846Z,16.90
2023-05-24T10:47:13.477Z,17.50
2023-05-24T10:49:57.719Z,17.32
2023-05-24T10:52:36.974Z,16.96
2023-05-24T10:55:11.706Z,16.97
2023-05-24T10:57:44.243Z,16.76
2023-05-24T11:03:08.911Z,16.86
2023-05-24T11:05:50.799Z,17.34
2023-05-24T11:08:25.751Z,17.36
2023-05-24T11:11:22.176Z,17.77
2023-05-24T11:14:00.536Z,17.94
2023-05-24T11:16:40.694Z,18.52
2023-05-24T11:19:22.406Z,17.26
2023-05-24T11:22:00.603Z,17.24
2023-05-24T11:24:33.971Z,17.66
2023-05-24T11:27:07.579Z,17.36
2023-05-24T11:29:45.028Z,17.28
2023-05-24T11:32:20.067Z,16.47
2023-05-24T11:34:52.859Z,16.95
2023-05-24T11:37:38.593Z,16.82
2023-05-24T11:40:18.503Z,17.26
2023-05-24T11:42:51.109Z,17.39
2023-05-24T11:45:23.677Z,18.18
2023-05-24T11:47:56.281Z,17.45
2023-05-24T11:50:28.957Z,17.91
2023-05-24T11:53:05.236Z,17.67
2023-05-24T11:55:40.233Z,17.52
2023-05-24T11:58:49.010Z,17.64
2023-05-24T12:01:25.728Z,18.43
2023-05-24T12:03:58.285Z,18.78
2023-05-24T12:06:38.804Z,19.11
2023-05-24T12:09:15.919Z,18.93
2023-05-24T12:11:50.531Z,18.36
2023-05-24T12:14:30.304Z,18.84
2023-05-24T12:17:03.508Z,17.55
2023-05-24T12:19:36.643Z,18.63
2023-05-24T12:22:10.687Z,18.52
2023-05-24T12:24:43.804Z,18.26
2023-05-24T12:27:16.320Z,18.38
2023-05-24T12:29:49.189Z,18.38
2023-05-24T12:32:21.970Z,18.39
2023-05-24T12:34:54.809Z,18.08
2023-05-24T12:37:30.830Z,18.19
2023-05-24T12:40:05.258Z,18.41
2023-05-24T12:42:37.799Z,18.43
2023-05-24T12:45:10.576Z,18.47
2023-05-24T12:47:43.158Z,18.22
2023-05-24T12:50:17.192Z,17.64
2023-05-24T12:52:53.207Z,18.04
2023-05-24T12:55:27.133Z,17.90
2023-05-24T12:58:02.484Z,17.72
2023-05-24T13:00:34.929Z,18.39
2023-05-24T13:03:07.575Z,18.09
2023-05-24T13:05:40.675Z,18.42
2023-05-24T13:08:13.622Z,18.73
2023-05-24T13:10:46.281Z,17.50
2023-05-24T13:13:18.769Z,18.95
2023-05-24T13:15:52.296Z,17.79
2023-05-24T13:18:26.228Z,17.65
2023-05-24T13:21:00.761Z,18.08
2023-05-24T13:23:36.134Z,17.91
2023-05-24T13:26:08.917Z,17.92
2023-05-24T13:28:58.701Z,17.17
2023-05-24T13:31:37.257Z,17.18
2023-05-24T13:34:13.136Z,17.35
2023-05-24T13:36:45.871Z,17.36
2023-05-24T13:39:19.711Z,17.34
2023-05-24T13:41:52.717Z,16.41
2023-05-24T13:44:25.317Z,17.17
2023-05-24T13:46:58.713Z,17.04
2023-05-24T13:49:31.366Z,17.41
2023-05-24T13:52:03.962Z,17.64
2023-05-24T13:54:36.625Z,18.01
2023-05-24T13:57:09.115Z,17.91
2023-05-24T13:59:41.845Z,18.39
2023-05-24T14:02:14.442Z,18.76
2023-05-24T14:04:47.055Z,19.05
2023-05-24T14:07:19.970Z,18.70
2023-05-24T14:09:52.837Z,18.49
2023-05-24T14:12:25.355Z,18.48
2023-05-24T14:15:00.019Z,19.15
2023-05-24T14:17:32.999Z,18.27
2023-05-24T14:20:07.249Z,18.99
2023-05-24T14:22:39.944Z,18.15
2023-05-24T14:25:12.486Z,18.89
2023-05-24T14:27:45.594Z,17.65
2023-05-24T14:30:18.150Z,18.68
2023-05-24T14:32:50.824Z,18.82
2023-05-24T14:35:23.402Z,18.75
2023-05-24T14:37:56.108Z,18.47
2023-05-24T14:40:29.119Z,18.40
2023-05-24T14:43:01.965Z,18.79
2023-05-24T14:45:34.484Z,17.84
2023-05-24T14:48:10.729Z,18.63
2023-05-24T14:50:43.366Z,19.33
2023-05-24T14:53:16.041Z,20.14
2023-05-24T14:55:48.727Z,20.72
2023-05-24T14:58:21.327Z,20.19
2023-05-24T15:00:53.869Z,19.39
2023-05-24T15:03:26.524Z,19.55
2023-05-24T15:06:08.013Z,20.00
2023-05-24T15:08:40.612Z,19.77
2023-05-24T15:11:13.005Z,19.12
2023-05-24T15:13:46.145Z,18.80
2023-05-24T15:16:18.702Z,18.17
2023-05-24T15:18:52.018Z,18.46
2023-05-24T15:21:24.441Z,18.09
2023-05-24T15:23:56.906Z,18.10
2023-05-24T15:26:29.341Z,17.80
2023-05-24T15:29:03.936Z,17.74
2023-05-24T15:31:36.853Z,17.60
2023-05-24T15:34:09.612Z,17.43
2023-05-24T15:36:42.356Z,17.78
2023-05-24T15:39:15.211Z,17.92
2023-05-24T15:41:47.680Z,17.75
2023-05-24T15:44:21.473Z,17.44
2023-05-24T15:46:54.068Z,17.41
2023-05-24T15:49:26.621Z,17.34
2023-05-24T15:52:04.263Z,17.09
2023-05-24T15:54:37.270Z,17.12
2023-05-24T15:57:09.836Z,17.06
2023-05-24T15:59:42.470Z,17.05
2023-05-24T16:02:15.036Z,16.75
2023-05-24T16:04:47.578Z,16.84
2023-05-24T16:07:20.191Z,16.80
2023-05-24T16:09:52.725Z,16.69
2023-05-24T16:15:00.559Z,16.76
2023-05-24T16:17:33.085Z,16.53
2023-05-24T16:20:06.310Z,16.56
2023-05-24T16:22:47.528Z,16.50
2023-05-24T16:25:21.131Z,16.50
2023-05-24T16:27:56.176Z,16.62
2023-05-24T16:30:31.288Z,16.65
2023-05-24T16:33:03.934Z,16.26
2023-05-24T16:35:36.451Z,16.36
2023-05-24T16:38:08.943Z,16.07
2023-05-24T16:40:42.417Z,16.22
2023-05-24T16:43:16.750Z,16.36
2023-05-24T16:45:49.264Z,16.32
2023-05-24T16:48:28.184Z,16.48
2023-05-24T16:51:01.000Z,16.55
2023-05-24T16:53:33.642Z,16.80
2023-05-24T16:56:06.190Z,16.86
2023-05-24T16:58:38.612Z,16.88
2023-05-24T17:01:11.170Z,16.75
2023-05-24T17:03:43.826Z,16.68
2023-05-24T17:06:16.374Z,16.77
2023-05-24T17:08:48.827Z,16.72
2023-05-24T17:11:23.041Z,16.44
2023-05-24T17:13:55.782Z,16.35
2023-05-24T17:16:28.682Z,16.52
2023-05-24T17:19:01.391Z,16.36
2023-05-24T17:21:33.953Z,16.00
2023-05-24T17:24:06.525Z,15.62
2023-05-24T17:26:40.339Z,16.12
2023-05-24T17:29:13.132Z,16.04
2023-05-24T17:31:46.044Z,16.06
2023-05-24T17:34:18.655Z,16.12
2023-05-24T17:36:51.151Z,15.82
2023-05-24T17:39:23.907Z,15.73
2023-05-24T17:41:56.378Z,15.77
2023-05-24T17:44:28.983Z,15.57
2023-05-24T17:47:04.608Z,15.60
2023-05-24T17:49:37.028Z,15.50
2023-05-24T17:52:09.558Z,15.58
2023-05-24T17:54:42.083Z,15.77
2023-05-24T17:57:14.501Z,15.56
2023-05-24T17:59:47.057Z,15.56
2023-05-24T18:02:19.532Z,15.75
2023-05-24T18:04:52.741Z,15.73
2023-05-24T18:07:25.302Z,15.21
2023-05-24T18:10:00.193Z,15.55
2023-05-24T18:12:33.171Z,15.50
2023-05-24T18:15:06.457Z,15.38
2023-05-24T18:17:38.906Z,15.37
2023-05-24T18:20:12.677Z,15.53
2023-05-24T18:22:45.238Z,15.54
2023-05-24T18:25:17.966Z,15.39
2023-05-24T18:27:50.534Z,15.46
2023-05-24T18:30:23.040Z,15.47
2023-05-24T18:35:35.756Z,15.57
2023-05-24T18:38:08.242Z,15.15
2023-05-24T18:40:40.830Z,15.28
2023-05-24T18:43:13.494Z,15.35
2023-05-24T18:45:46.048Z,15.16
2023-05-24T18:48:18.590Z,15.23
2023-05-24T18:50:52.057Z,14.90
2023-05-24T18:53:25.600Z,14.89
2023-05-24T18:55:58.228Z,14.75
2023-05-24T18:58:34.229Z,14.67
2023-05-24T19:01:06.867Z,14.82
2023-05-24T19:03:41.640Z,14.76
2023-05-24T19:06:14.643Z,14.48
2023-05-24T19:08:47.302Z,14.02
2023-05-24T19:11:23.068Z,14.24
2023-05-24T19:13:58.550Z,13.99
2023-05-24T19:16:31.169Z,14.13
2023-05-24T19:19:06.148Z,14.04
2023-05-24T19:21:38.735Z,13.59
2023-05-24T19:24:11.312Z,13.77
2023-05-24T19:26:43.953Z,13.46
2023-05-24T19:29:17.456Z,13.43
2023-05-24T19:31:52.945Z,13.45
2023-05-24T19:34:25.892Z,13.34
2023-05-24T19:36:58.652Z,13.31
2023-05-24T19:39:31.255Z,13.08
2023-05-24T19:42:04.563Z,13.14
2023-05-24T19:44:37.622Z,12.96
2023-05-24T19:47:10.185Z,13.03
2023-05-24T19:49:43.233Z,12.86
2023-05-24T19:52:18.512Z,12.86
2023-05-24T19:54:52.774Z,12.63
2023-05-24T19:57:25.451Z,12.73
2023-05-24T19:59:58.048Z,12.64
2023-05-24T20:02:30.490Z,12.64
2023-05-24T20:05:03.281Z,12.46
2023-05-24T20:07:35.751Z,12.31
2023-05-24T20:10:08.803Z,12.38
2023-05-24T20:12:42.638Z,12.26
2023-05-24T20:15:17.323Z,12.28
2023-05-24T20:17:49.827Z,12.26
2023-05-24T20:20:22.625Z,12.12
2023-05-24T20:22:55.223Z,12.14
2023-05-24T20:25:27.990Z,12.11
2023-05-24T20:28:00.630Z,12.04
2023-05-24T20:30:33.908Z,12.08
2023-05-24T20:33:06.488Z,11.92
2023-05-24T20:35:39.208Z,11.93
2023-05-24T20:38:11.887Z,11.82
2023-05-24T20:40:44.590Z,11.88
2023-05-24T20:43:17.109Z,11.75
2023-05-24T20:45:49.679Z,11.71
2023-05-24T20:48:23.332Z,11.68
2023-05-24T20:50:55.885Z,11.57
2023-05-24T20:53:28.445Z,11.56
2023-05-24T20:56:02.004Z,11.49
2023-05-24T20:58:34.516Z,-147.76
2023-05-24T21:01:08.789Z,-147.76
2023-05-24T21:03:41.471Z,-147.76
2023-05-24T21:06:14.347Z,-147.76
2023-05-24T21:08:47.187Z,-147.76
2023-05-24T21:11:19.702Z,-147.76
2023-05-24T21:13:52.225Z,-147.76
2023-05-24T21:16:25.244Z,-147.76
2023-05-24T21:19:00.386Z,-147.76
2023-05-24T21:21:33.022Z,-147.76
2023-05-24T21:24:05.648Z,-147.76
2023-05-24T21:26:38.099Z,-147.76
2023-05-24T21:29:13.097Z,-147.76
2023-05-24T21:31:46.314Z,-147.76
2023-05-24T21:34:19.144Z,-147.76
2023-05-24T21:36:51.629Z,-147.76
2023-05-24T21:39:24.158Z,-147.76
2023-05-24T21:41:56.574Z,-147.76
2023-05-24T21:44:29.017Z,-147.76
2023-05-24T21:47:01.623Z,-147.76
2023-05-24T21:49:34.046Z,-147.76
2023-05-24T21:52:06.585Z,-147.76
2023-05-24T21:54:39.024Z,-147.76
2023-05-24T21:57:11.549Z,-147.76
2023-05-24T21:59:44.039Z,-147.76
2023-05-24T22:02:16.725Z,-147.76
2023-05-24T22:04:49.430Z,-147.76
2023-05-24T22:07:21.883Z,-147.76
2023-05-24T22:09:54.376Z,-147.76
2023-05-24T22:12:26.794Z,-147.76
2023-05-24T22:15:00.891Z,-147.76
2023-05-24T22:17:33.356Z,-147.76
2023-05-24T22:20:06.651Z,-147.76
2023-05-24T22:22:48.301Z,-147.76
2023-05-24T22:25:21.039Z,-147.76
2023-05-24T22:27:55.616Z,-147.76
2023-05-24T22:30:28.102Z,-147.76
2023-05-24T22:33:01.245Z,-147.76
2023-05-24T22:35:33.730Z,-147.76
2023-05-24T22:38:06.561Z,-147.76
2023-05-24T22:40:41.971Z,-147.76
2023-05-24T22:43:14.525Z,-147.76
2023-05-24T22:45:47.199Z,-147.76
2023-05-24T22:48:21.939Z,-147.76
2023-05-24T22:50:57.168Z,-147.76
2023-05-24T22:53:29.690Z,-147.76
2023-05-24T22:56:02.283Z,-147.76
2023-05-24T22:58:34.785Z,-147.76
2023-05-24T23:01:07.372Z,-147.76
2023-05-24T23:03:39.928Z,-147.76
2023-05-24T23:06:12.387Z,-147.76
2023-05-24T23:08:44.826Z,-147.76
2023-05-24T23:11:18.064Z,-147.76
2023-05-24T23:13:52.209Z,-147.76
2023-05-24T23:16:24.636Z,-147.76
2023-05-24T23:18:57.412Z,-147.76
2023-05-24T23:21:29.943Z,-147.76
2023-05-24T23:24:05.847Z,-147.76
2023-05-24T23:26:38.351Z,-147.76
2023-05-24T23:29:10.809Z,-147.76
2023-05-24T23:31:43.411Z,-147.76
2023-05-24T23:34:16.080Z,-147.76
2023-05-24T23:36:48.594Z,-147.76
2023-05-24T23:39:21.416Z,-147.76
2023-05-24T23:41:54.072Z,-147.76
2023-05-24T23:44:26.590Z,-147.76
2023-05-24T23:46:59.158Z,-147.76
2023-05-24T23:49:31.694Z,-147.76
2023-05-24T23:52:04.494Z,-147.76
2023-05-24T23:54:36.968Z,-147.76
2023-05-24T23:57:09.650Z,-147.76
2023-05-24T23:59:42.102Z,-147.76
